Time;durP1;ratioP1;P1;durP2;ratioP2;P2;SDS_P1;SDS_P2;PMS_P1;PMS_P2;Temp;Humidity;BMP_temperature;BMP_pressure;BME280_temperature;BME280_humidity;BME280_pressure;Samples;Min_cycle;Max_cycle;Signal;HPM_P1;HPM_P2
2023/07/12 01:21:08;;;;;;;7.75;3.47;;;14.90;99.90;;;14.30;100.00;101167.88;3994591;29;20069;-76
2023/07/12 01:23:09;;;;;;;10.45;3.35;;;14.80;99.90;;;14.27;100.00;101175.34;3981585;29;20042;-76
2023/07/12 01:25:42;;;;;;;9.48;3.38;;;14.80;99.90;;;14.25;100.00;101175.50;3981784;29;20118;-76
2023/07/12 01:27:43;;;;;;;10.95;3.95;;;14.70;99.90;;;14.18;100.00;101169.25;3965742;29;20058;-76
2023/07/12 01:29:46;;;;;;;8.35;3.13;;;14.70;99.90;;;14.22;100.00;101170.53;3981820;29;20038;-76
2023/07/12 01:31:47;;;;;;;6.70;2.95;;;14.70;99.90;;;14.17;100.00;101164.09;3981802;29;20023;-76
2023/07/12 01:33:48;;;;;;;7.03;3.63;;;14.70;99.90;;;14.21;100.00;101168.06;3981693;29;20026;-76
2023/07/12 01:35:49;;;;;;;12.43;3.60;;;14.70;99.90;;;14.20;100.00;101172.53;3981638;29;20037;-76
2023/07/12 01:37:49;;;;;;;11.65;3.55;;;14.70;99.90;;;14.19;100.00;101167.38;3965471;30;20035;-76
2023/07/12 01:39:50;;;;;;;7.22;2.70;;;14.70;99.90;;;14.25;100.00;101178.16;3950858;30;20046;-76
2023/07/12 01:41:51;;;;;;;10.73;3.40;;;14.70;99.90;;;14.23;100.00;101172.19;3981536;29;20027;-76
2023/07/12 01:43:53;;;;;;;13.15;4.15;;;14.70;99.90;;;14.21;100.00;101171.56;3965392;30;20043;-76
2023/07/12 01:45:54;;;;;;;5.78;3.00;;;14.70;99.90;;;14.20;100.00;101180.50;3972448;29;20027;-76
2023/07/12 01:47:56;;;;;;;12.95;3.15;;;14.70;99.90;;;14.17;100.00;101177.34;3981466;29;20072;-76
2023/07/12 01:49:57;;;;;;;5.68;2.47;;;14.70;99.90;;;14.16;100.00;101173.88;3965375;29;20031;-76
2023/07/12 01:51:58;;;;;;;11.05;3.60;;;14.70;99.90;;;14.13;100.00;101182.16;3981208;29;20031;-76
2023/07/12 01:53:59;;;;;;;8.73;2.88;;;14.70;99.90;;;14.11;100.00;101167.41;3981559;29;20088;-76
2023/07/12 01:56:03;;;;;;;8.95;3.92;;;14.70;99.90;;;14.16;100.00;101173.88;3981270;29;20043;-76
2023/07/12 01:58:03;;;;;;;9.27;3.60;;;14.70;99.90;;;14.15;100.00;101179.34;3965416;29;20475;-76
2023/07/12 02:00:05;;;;;;;9.52;3.58;;;14.60;99.90;;;14.09;100.00;101169.41;3981401;29;20043;-76
2023/07/12 02:02:07;;;;;;;6.93;3.03;;;14.60;99.90;;;14.13;100.00;101176.03;3965233;30;20031;-76
2023/07/12 02:04:07;;;;;;;11.00;4.50;;;14.60;99.90;;;14.12;100.00;101171.72;3981178;29;20043;-76
2023/07/12 02:06:08;;;;;;;10.23;3.10;;;14.60;99.90;;;14.03;100.00;101155.00;3995105;29;20098;-76
2023/07/12 02:08:10;;;;;;;5.63;2.95;;;14.60;99.90;;;14.09;100.00;101166.75;3979854;29;20031;-76
2023/07/12 02:10:29;;;;;;;11.68;3.38;;;14.60;99.90;;;14.08;100.00;101171.22;3983005;29;20031;-76
2023/07/12 02:12:30;;;;;;;9.15;3.13;;;14.60;99.90;;;14.06;100.00;101167.94;3964860;30;20485;-76
2023/07/12 02:14:50;;;;;;;10.52;3.55;;;14.60;99.90;;;14.06;100.00;101181.19;3980959;29;20027;-76
2023/07/12 02:19:47;;;;;;;9.80;3.35;;;14.60;99.90;;;14.04;100.00;101174.38;3967346;29;20096;-76
2023/07/12 02:24:45;;;;;;;9.10;3.63;;;14.50;99.90;;;13.99;100.00;101169.59;3994671;29;20525;-76
2023/07/12 02:26:46;;;;;;;13.90;3.65;;;14.50;99.90;;;14.01;100.00;101169.44;3980313;29;20054;-76
2023/07/12 02:28:47;;;;;;;10.23;3.65;;;14.50;99.90;;;14.01;100.00;101170.25;3964842;30;20031;-76
2023/07/12 02:30:48;;;;;;;10.55;3.50;;;14.50;99.90;;;13.97;100.00;101168.94;3980995;29;20407;-76
2023/07/12 02:32:49;;;;;;;7.28;3.33;;;14.50;99.90;;;13.96;100.00;101163.78;3980884;29;20046;-76
2023/07/12 02:34:50;;;;;;;11.00;3.63;;;14.50;99.90;;;13.97;100.00;101171.59;3964727;30;20130;-76
2023/07/12 02:36:51;;;;;;;11.35;3.40;;;14.50;99.90;;;13.94;100.00;101166.63;3980703;29;20030;-76
2023/07/12 02:38:52;;;;;;;8.70;3.33;;;14.50;99.90;;;13.93;100.00;101169.41;3964708;30;20038;-76
2023/07/12 02:40:53;;;;;;;9.98;4.03;;;14.50;99.90;;;13.91;100.00;101160.81;3964615;30;20039;-76
2023/07/12 02:42:54;;;;;;;10.25;3.50;;;14.50;99.90;;;13.90;100.00;101167.94;3979723;29;20045;-76
2023/07/12 02:44:55;;;;;;;8.98;3.10;;;14.40;99.90;;;13.88;100.00;101159.31;3949795;30;20032;-76
2023/07/12 02:46:56;;;;;;;10.85;3.30;;;14.40;99.90;;;13.89;100.00;101160.97;4005329;29;20026;-76
2023/07/12 02:48:57;;;;;;;10.32;3.28;;;14.40;99.90;;;13.88;100.00;101161.97;3979514;29;20038;-76
2023/07/12 02:50:58;;;;;;;9.77;3.70;;;14.40;99.90;;;13.84;100.00;101160.66;3996048;29;20034;-76
2023/07/12 02:52:59;;;;;;;8.70;3.67;;;14.40;99.90;;;13.79;100.00;101158.50;3995689;29;20053;-76
2023/07/12 02:55:00;;;;;;;7.65;3.70;;;14.40;99.90;;;13.76;100.00;101152.69;3989961;29;20521;-76
2023/07/12 02:57:03;;;;;;;8.95;4.45;;;14.30;99.90;;;13.82;100.00;101155.53;3980814;29;20372;-76
2023/07/12 02:59:04;;;;;;;12.20;4.13;;;14.40;99.90;;;13.80;100.00;101160.16;3979745;29;20035;-76
2023/07/12 03:01:05;;;;;;;14.25;4.57;;;14.40;99.90;;;13.82;100.00;101160.00;3979174;29;20038;-76
2023/07/12 03:03:07;;;;;;;9.90;3.70;;;14.40;99.90;;;13.78;100.00;101163.97;3991434;29;20037;-76
2023/07/12 03:05:08;;;;;;;6.97;3.63;;;14.30;99.90;;;13.80;100.00;101161.97;3990531;29;20554;-76
2023/07/12 03:07:09;;;;;;;7.32;3.13;;;14.30;99.90;;;13.81;100.00;101171.59;3980486;29;20073;-76
2023/07/12 03:09:10;;;;;;;8.30;3.67;;;14.30;99.90;;;13.81;100.00;101171.59;3980572;29;20027;-76
2023/07/12 03:11:11;;;;;;;10.75;3.97;;;14.40;99.90;;;13.81;100.00;101171.59;3994474;29;20091;-76
2023/07/12 03:13:12;;;;;;;8.05;4.38;;;14.40;99.90;;;13.80;100.00;101170.75;3994397;29;20026;-76
2023/07/12 03:15:13;;;;;;;10.27;3.60;;;14.30;99.90;;;13.79;100.00;101173.59;3962846;29;20039;-76
2023/07/12 03:17:14;;;;;;;13.35;4.70;;;14.30;99.90;;;13.74;100.00;101173.22;4001251;29;20026;-76
2023/07/12 03:19:16;;;;;;;9.15;3.72;;;14.30;99.90;;;13.70;100.00;101174.56;3979368;29;20043;-76
2023/07/12 03:21:17;;;;;;;8.93;3.95;;;14.30;99.90;;;13.68;100.00;101179.19;3994049;29;20067;-76
2023/07/12 03:23:18;;;;;;;7.50;3.58;;;14.30;99.90;;;13.67;100.00;101177.56;4010374;29;20057;-76
2023/07/12 03:25:19;;;;;;;5.75;3.65;;;14.20;99.90;;;13.68;100.00;101187.97;3992247;29;20035;-76
2023/07/12 03:27:20;;;;;;;10.38;4.57;;;14.20;99.90;;;13.66;100.00;101183.84;3983457;29;20031;-76
2023/07/12 03:29:21;;;;;;;6.28;3.90;;;14.30;99.90;;;13.60;100.00;101189.81;3982345;29;20078;-76
2023/07/12 03:31:22;;;;;;;11.30;3.55;;;14.20;99.90;;;13.60;100.00;101181.84;3967392;30;20426;-76
2023/07/12 03:33:23;;;;;;;8.60;3.53;;;14.20;99.90;;;13.56;100.00;101189.28;3983441;29;20035;-76
2023/07/12 03:35:27;;;;;;;8.32;3.97;;;14.10;99.90;;;13.56;100.00;101191.16;3983203;29;20058;-76
2023/07/12 03:37:27;;;;;;;10.35;4.22;;;14.10;99.90;;;13.54;100.00;101195.75;3996111;29;20049;-76
2023/07/12 03:39:28;;;;;;;7.60;3.45;;;14.10;99.90;;;13.49;100.00;101192.78;3998300;29;20034;-76
2023/07/12 03:41:30;;;;;;;9.18;3.40;;;14.10;99.90;;;13.47;100.00;101203.53;3997253;29;20022;-76
2023/07/12 03:43:32;;;;;;;10.18;3.60;;;14.10;99.90;;;13.43;100.00;101193.44;3998050;29;20042;-76
2023/07/12 03:45:33;;;;;;;8.20;3.45;;;14.00;99.90;;;13.44;100.00;101198.56;3974451;29;20400;-76
2023/07/12 03:47:33;;;;;;;12.15;4.40;;;14.00;99.90;;;13.45;100.00;101199.41;3967213;30;20081;-76
2023/07/12 03:49:34;;;;;;;7.07;4.32;;;14.00;99.90;;;13.47;100.00;101198.22;3982053;29;20480;-76
2023/07/12 03:51:35;;;;;;;6.07;3.78;;;14.00;99.90;;;13.46;100.00;101203.72;3983029;29;20047;-76
2023/07/12 03:53:36;;;;;;;6.38;3.70;;;14.00;99.90;;;13.40;100.00;101194.59;3983065;29;20436;-76
2023/07/12 03:55:43;;;;;;;10.10;4.53;;;14.00;99.90;;;13.45;100.00;101196.75;3981581;29;20035;-76
2023/07/12 03:57:43;;;;;;;8.80;3.47;;;14.00;99.90;;;13.43;100.00;101196.91;3966794;29;20036;-76
2023/07/12 03:59:44;;;;;;;10.50;3.70;;;14.00;99.90;;;13.38;100.00;101190.47;3992628;29;20383;-76
2023/07/12 04:01:45;;;;;;;6.28;3.60;;;13.90;99.90;;;13.40;100.00;101199.06;3996406;29;20036;-76
2023/07/12 04:03:46;;;;;;;7.53;3.25;;;13.90;99.90;;;13.36;100.00;101189.78;3997938;29;20072;-76
2023/07/12 04:05:51;;;;;;;9.02;3.92;;;13.90;99.90;;;13.34;100.00;101197.06;3988711;29;20031;-76
2023/07/12 04:07:53;;;;;;;5.35;2.83;;;13.90;99.90;;;13.29;100.00;101189.59;3981742;29;20031;-76
2023/07/12 04:09:54;;;;;;;6.63;3.50;;;13.90;99.90;;;13.30;100.00;101193.91;3951773;30;20020;-76
2023/07/12 04:11:55;;;;;;;8.35;3.25;;;13.80;99.90;;;13.26;100.00;101192.59;3982906;29;20402;-76
2023/07/12 04:13:59;;;;;;;7.20;3.03;;;13.80;99.90;;;13.20;100.00;101194.03;3982840;29;20122;-76
2023/07/12 04:16:01;;;;;;;6.90;3.72;;;13.80;99.90;;;13.14;100.00;101197.34;3986972;29;20449;-76
2023/07/12 04:18:03;;;;;;;7.97;2.83;;;13.70;99.90;;;13.09;100.00;101197.00;3979518;29;20038;-76
2023/07/12 04:20:05;;;;;;;6.35;3.00;;;13.70;99.90;;;13.07;100.00;101193.66;3996688;29;20125;-76
2023/07/12 04:22:06;;;;;;;10.35;3.53;;;13.60;99.90;;;13.02;100.00;101189.84;3996185;29;20495;-76
2023/07/12 04:24:07;;;;;;;7.93;3.42;;;13.60;99.90;;;13.03;100.00;101194.97;3997628;29;20479;-75
2023/07/12 04:26:09;;;;;;;8.10;3.65;;;13.60;99.90;;;13.07;100.00;101198.97;3969821;29;20031;-75
2023/07/12 04:28:11;;;;;;;10.23;3.63;;;13.60;99.90;;;13.05;100.00;101195.63;3982655;29;20039;-75
2023/07/12 04:30:15;;;;;;;5.22;3.50;;;13.60;99.90;;;13.06;100.00;101196.44;3982731;29;20023;-75
2023/07/12 04:32:16;;;;;;;6.35;3.50;;;13.60;99.90;;;13.02;100.00;101198.59;3982623;29;20066;-75
2023/07/12 04:34:16;;;;;;;14.27;3.95;;;13.60;99.90;;;13.04;100.00;101203.75;3982029;29;20040;-76
2023/07/12 04:36:18;;;;;;;6.97;3.90;;;13.60;99.90;;;13.03;100.00;101208.19;3979378;29;20059;-76
2023/07/12 04:38:19;;;;;;;10.38;4.20;;;13.60;99.90;;;13.09;100.00;101212.06;3982095;29;20034;-76
2023/07/12 04:40:20;;;;;;;12.90;4.93;;;13.60;99.90;;;13.12;100.00;101212.56;3980769;29;20042;-76
2023/07/12 04:42:21;;;;;;;8.65;3.70;;;13.60;99.90;;;13.12;100.00;101211.75;3981820;29;20039;-76
2023/07/12 04:44:22;;;;;;;7.20;4.05;;;13.70;99.90;;;13.15;100.00;101214.91;3981539;29;20034;-76
2023/07/12 04:46:23;;;;;;;9.70;4.20;;;13.70;99.90;;;13.15;100.00;101211.41;3972359;29;20027;-76
2023/07/12 04:48:24;;;;;;;8.32;3.90;;;13.70;99.90;;;13.17;100.00;101231.44;3981135;29;20035;-75
2023/07/12 04:50:24;;;;;;;5.65;3.35;;;13.70;99.90;;;13.12;100.00;101222.34;3997279;29;20554;-76
2023/07/12 04:52:25;;;;;;;6.90;3.25;;;13.70;99.90;;;13.08;100.00;101226.31;3992473;29;20106;-76
2023/07/12 04:54:26;;;;;;;7.38;3.30;;;13.70;99.90;;;13.07;100.00;101225.44;4011293;29;20030;-76
2023/07/12 04:56:27;;;;;;;6.55;2.80;;;13.60;99.90;;;13.05;100.00;101224.75;3983290;29;20081;-76
2023/07/12 04:58:29;;;;;;;9.57;3.70;;;13.60;99.90;;;13.02;100.00;101224.28;3981140;29;20039;-76
2023/07/12 05:00:29;;;;;;;6.00;3.13;;;13.60;99.90;;;13.00;100.00;101221.75;3982359;29;20069;-76
2023/07/12 05:02:30;;;;;;;9.43;3.53;;;13.60;99.90;;;13.03;100.00;101224.09;3982119;29;20511;-76
2023/07/12 05:04:31;;;;;;;9.25;3.30;;;13.60;99.90;;;12.98;100.00;101222.91;3982195;29;20411;-76
2023/07/12 05:06:33;;;;;;;7.40;3.30;;;13.50;99.90;;;13.03;100.00;101229.38;3980648;29;20088;-76
2023/07/12 05:08:33;;;;;;;6.88;3.20;;;13.60;99.90;;;13.04;100.00;101231.06;3981880;29;20031;-76
2023/07/12 05:10:34;;;;;;;9.98;3.25;;;13.60;99.90;;;13.10;100.00;101230.44;3995903;29;20388;-76
2023/07/12 05:12:37;;;;;;;6.38;3.40;;;13.60;99.90;;;13.14;100.00;101231.78;3966034;30;20035;-76
2023/07/12 05:14:37;;;;;;;9.05;3.35;;;13.70;99.90;;;13.18;100.00;101242.88;3995848;29;20044;-76
2023/07/12 05:16:38;;;;;;;5.60;3.60;;;13.70;99.90;;;13.19;100.00;101234.78;3980208;29;20406;-76
2023/07/12 05:18:39;;;;;;;10.27;3.17;;;13.70;99.90;;;13.22;100.00;101234.47;3996949;29;20034;-76
2023/07/12 05:20:40;;;;;;;8.50;3.20;;;13.80;99.90;;;13.42;100.00;101244.78;3980677;29;20083;-76
2023/07/12 05:22:43;;;;;;;8.90;2.67;;;13.90;99.90;;;13.55;100.00;101245.13;3996654;29;20054;-76
2023/07/12 05:24:44;;;;;;;6.97;2.83;;;14.00;99.90;;;13.73;100.00;101259.09;3988728;29;20046;-76
2023/07/12 05:26:44;;;;;;;6.68;2.95;;;14.10;99.90;;;13.84;100.00;101250.81;3981849;29;20049;-76
2023/07/12 05:28:45;;;;;;;9.45;4.20;;;14.30;99.90;;;13.97;100.00;101256.47;3980865;29;20031;-76
2023/07/12 05:30:48;;;;;;;11.93;3.88;;;14.40;99.90;;;13.92;100.00;101247.34;3981731;29;20019;-76
2023/07/12 05:32:49;;;;;;;7.15;4.15;;;14.50;99.90;;;14.05;100.00;101264.41;3980504;29;20050;-76
2023/07/12 05:34:50;;;;;;;12.23;4.50;;;14.60;99.90;;;14.14;100.00;101268.72;3981642;29;20058;-76
2023/07/12 05:36:51;;;;;;;8.60;4.55;;;14.60;99.90;;;14.25;100.00;101271.03;3988762;29;20071;-76
2023/07/12 05:38:53;;;;;;;22.85;4.78;;;14.70;99.90;;;14.32;100.00;101265.91;3996571;29;20031;-76
2023/07/12 05:41:00;;;;;;;5.55;3.90;;;14.90;99.90;;;14.42;100.00;101265.75;3996519;29;20066;-76
2023/07/12 05:43:01;;;;;;;8.32;4.78;;;14.90;99.90;;;14.45;100.00;101265.41;3996586;29;20031;-76
2023/07/12 05:45:02;;;;;;;9.82;3.97;;;15.00;99.90;;;14.58;100.00;101269.19;3994428;29;20079;-76
2023/07/12 05:47:03;;;;;;;8.32;4.13;;;15.10;99.90;;;14.64;100.00;101275.66;3980862;29;20491;-76
2023/07/12 05:49:04;;;;;;;6.55;3.78;;;15.10;99.90;;;14.75;100.00;101281.47;3979928;29;20039;-76
2023/07/12 05:51:07;;;;;;;9.80;4.57;;;15.20;99.90;;;14.79;100.00;101274.78;3965230;30;20026;-76
2023/07/12 05:53:08;;;;;;;4.93;4.22;;;15.20;99.90;;;14.79;100.00;101281.94;3980215;29;20414;-76
2023/07/12 05:55:12;;;;;;;5.93;3.80;;;15.30;99.90;;;14.86;100.00;101280.25;3980366;29;20122;-76
2023/07/12 05:57:12;;;;;;;7.78;3.45;;;15.30;99.90;;;15.00;100.00;101290.16;3994482;29;20440;-77
2023/07/12 05:59:14;;;;;;;4.47;3.30;;;15.40;99.90;;;15.05;100.00;101279.03;3996609;29;20034;-76
2023/07/12 06:01:17;;;;;;;3.50;3.08;;;15.40;99.90;;;15.21;100.00;101287.78;3982445;29;20043;-76
2023/07/12 06:03:17;;;;;;;5.05;3.22;;;15.60;99.90;;;15.43;100.00;101289.66;4007362;29;20026;-76
2023/07/12 06:05:19;;;;;;;4.47;3.50;;;15.70;99.90;;;15.68;100.00;101300.19;3992519;29;20042;-76
2023/07/12 06:07:19;;;;;;;4.07;2.78;;;16.00;99.90;;;15.92;100.00;101300.84;3980028;29;20035;-76
2023/07/12 06:09:20;;;;;;;4.53;3.78;;;16.10;99.90;;;16.10;100.00;101299.75;3981235;29;20038;-76
2023/07/12 06:11:21;;;;;;;4.63;3.28;;;16.30;99.90;;;16.15;100.00;101300.03;3981106;29;20023;-76
2023/07/12 06:13:22;;;;;;;4.25;3.63;;;16.40;99.90;;;16.23;100.00;101294.63;3980956;29;20503;-76
2023/07/12 06:15:23;;;;;;;6.75;3.45;;;16.50;99.90;;;16.26;100.00;101307.59;3979821;29;20510;-76
2023/07/12 06:17:25;;;;;;;5.18;3.97;;;16.50;99.90;;;16.37;100.00;101313.31;3981040;29;20096;-76
2023/07/12 06:19:26;;;;;;;3.85;3.05;;;16.60;99.90;;;16.45;100.00;101307.94;3980960;29;20037;-76
2023/07/12 06:21:27;;;;;;;5.38;3.20;;;16.70;99.90;;;16.40;100.00;101315.63;3966499;29;20488;-76
2023/07/12 06:23:29;;;;;;;4.70;3.40;;;16.70;99.90;;;16.30;100.00;101314.22;3994824;29;20494;-76
2023/07/12 06:25:30;;;;;;;4.22;2.78;;;16.60;99.90;;;16.13;100.00;101312.69;3996202;29;20038;-76
2023/07/12 06:27:31;;;;;;;3.78;2.40;;;16.40;99.90;;;15.93;100.00;101309.66;3996117;29;20027;-76
2023/07/12 06:29:32;;;;;;;5.15;2.75;;;16.30;99.90;;;15.81;100.00;101314.56;3995953;29;20110;-76
2023/07/12 06:31:32;;;;;;;5.72;2.70;;;16.20;99.90;;;15.65;100.00;101316.50;3996137;29;20037;-76
2023/07/12 06:33:33;;;;;;;4.57;3.20;;;16.10;99.90;;;15.49;100.00;101315.59;3996073;29;20459;-76
2023/07/12 06:35:34;;;;;;;5.13;3.35;;;16.00;99.90;;;15.41;100.00;101306.81;3994869;29;20034;-76
2023/07/12 06:37:35;;;;;;;4.88;2.80;;;15.90;99.90;;;15.36;100.00;101312.63;3995710;29;20041;-76
2023/07/12 06:39:37;;;;;;;5.10;3.40;;;15.90;99.90;;;15.33;100.00;101310.31;3995026;29;20026;-76
2023/07/12 06:41:37;;;;;;;7.97;4.25;;;15.80;99.90;;;15.35;100.00;101318.13;3979743;29;20030;-76
2023/07/12 06:43:38;;;;;;;7.68;4.38;;;15.90;99.90;;;15.42;100.00;101317.25;3980008;29;20034;-76
2023/07/12 06:45:39;;;;;;;7.25;3.78;;;15.90;99.90;;;15.50;100.00;101306.59;3979492;29;20027;-76
2023/07/12 06:47:40;;;;;;;5.90;3.90;;;15.90;99.90;;;15.68;100.00;101313.50;3979729;29;20030;-76
2023/07/12 06:49:41;;;;;;;3.63;2.65;;;16.00;99.90;;;15.77;100.00;101317.78;3979470;29;20057;-76
2023/07/12 06:51:46;;;;;;;6.38;3.75;;;16.10;99.90;;;15.99;100.00;101327.59;3994526;29;20031;-76
2023/07/12 06:53:46;;;;;;;5.60;3.25;;;16.20;99.90;;;16.22;100.00;101327.59;3995854;29;20498;-76
2023/07/12 06:55:48;;;;;;;6.72;3.22;;;16.50;99.90;;;16.33;100.00;101325.34;3980367;29;20036;-77
2023/07/12 06:57:49;;;;;;;5.07;3.22;;;16.60;99.90;;;16.67;100.00;101327.56;4011745;29;20041;-77
2023/07/12 06:59:49;;;;;;;4.93;2.97;;;16.80;99.90;;;16.74;100.00;101323.16;3979322;29;20034;-76
2023/07/12 07:01:50;;;;;;;5.68;3.70;;;16.90;99.90;;;16.77;100.00;101336.13;3995750;29;20035;-76
2023/07/12 07:03:51;;;;;;;5.88;3.28;;;17.10;99.90;;;16.81;100.00;101332.09;3995866;29;20083;-76
2023/07/12 07:05:52;;;;;;;5.00;3.70;;;17.10;99.90;;;16.67;100.00;101311.56;3994865;29;20037;-75
2023/07/12 07:07:53;;;;;;;4.22;3.17;;;17.10;99.90;;;16.73;100.00;101337.47;4009259;29;20111;-75
2023/07/12 07:09:54;;;;;;;7.88;3.72;;;17.10;99.90;;;16.58;100.00;101331.28;3995357;29;20034;-76
2023/07/12 07:11:55;;;;;;;6.93;4.25;;;17.00;99.90;;;16.39;100.00;101337.94;3994574;29;20022;-76
2023/07/12 07:13:56;;;;;;;6.75;4.40;;;17.00;99.90;;;16.26;100.00;101326.22;3995687;29;20041;-76
2023/07/12 07:15:57;;;;;;;10.75;3.97;;;16.90;99.90;;;16.21;100.00;101342.75;3995509;29;20090;-76
2023/07/12 07:17:58;;;;;;;8.20;4.13;;;16.80;99.90;;;16.26;100.00;101350.19;3995567;29;20049;-77
2023/07/12 07:19:58;;;;;;;8.38;4.10;;;16.80;99.90;;;16.44;100.00;101348.88;3995254;29;20038;-77
2023/07/12 07:21:59;;;;;;;9.40;3.80;;;16.80;99.90;;;16.54;100.00;101346.00;3994823;29;20057;-77
2023/07/12 07:24:00;;;;;;;3.45;2.55;;;16.90;99.90;;;16.54;100.00;101349.50;3995536;29;20509;-77
2023/07/12 07:26:08;;;;;;;7.75;3.38;;;16.80;99.90;;;16.52;100.00;101340.81;3986829;29;20545;-77
2023/07/12 07:28:09;;;;;;;9.35;3.17;;;16.90;99.90;;;16.58;100.00;101345.44;3979087;29;20046;-77
2023/07/12 07:30:12;;;;;;;8.02;3.45;;;16.90;99.90;;;16.67;100.00;101353.34;3995520;29;20055;-77
2023/07/12 07:32:13;;;;;;;7.45;3.17;;;17.00;99.90;;;16.81;100.00;101349.91;3994480;29;20030;-77
2023/07/12 07:34:14;;;;;;;6.38;3.00;;;17.20;99.90;;;17.03;100.00;101351.66;3994236;29;20094;-77
2023/07/12 07:36:15;;;;;;;3.30;2.10;;;17.40;99.90;;;17.24;100.00;101365.09;3995264;29;20034;-77
2023/07/12 07:38:16;;;;;;;5.18;2.30;;;17.60;99.90;;;17.50;100.00;101354.75;3994183;29;20542;-77
2023/07/12 07:40:18;;;;;;;6.97;2.45;;;17.80;99.90;;;17.53;100.00;101367.72;3995421;29;20160;-77
2023/07/12 07:42:18;;;;;;;3.03;2.03;;;17.90;99.90;;;17.50;100.00;101357.44;3995197;29;20410;-77
2023/07/12 07:44:19;;;;;;;7.20;2.38;;;17.90;99.90;;;17.55;100.00;101368.44;3995079;29;20026;-77
2023/07/12 07:46:21;;;;;;;6.07;2.33;;;18.00;99.90;;;17.60;100.00;101354.50;3995372;29;20415;-77
2023/07/12 07:48:21;;;;;;;6.97;2.58;;;18.10;99.90;;;17.72;100.00;101368.19;3979337;29;20035;-77
2023/07/12 07:50:22;;;;;;;8.68;2.03;;;18.20;99.90;;;17.71;100.00;101361.22;3995252;29;20033;-77
2023/07/12 07:52:23;;;;;;;3.80;1.38;;;18.20;99.90;;;17.95;100.00;101367.03;3978792;29;20480;-77
2023/07/12 07:54:24;;;;;;;5.55;2.33;;;18.40;99.90;;;18.00;100.00;101371.81;3964092;30;20122;-77
2023/07/12 07:56:27;;;;;;;7.78;2.92;;;18.50;99.90;;;18.13;100.00;101366.59;3995266;29;20022;-77
2023/07/12 07:58:27;;;;;;;4.95;1.75;;;18.60;99.90;;;18.20;100.00;101375.53;3995177;29;20045;-77
2023/07/12 08:00:28;;;;;;;5.90;2.20;;;18.60;99.90;;;18.14;100.00;101368.25;3994290;29;20546;-77
2023/07/12 08:02:29;;;;;;;6.10;1.88;;;18.70;99.90;;;18.34;100.00;101373.81;3995267;29;20051;-77
2023/07/12 08:04:31;;;;;;;4.07;1.80;;;18.80;99.90;;;18.69;100.00;101376.44;3995305;29;20031;-77
2023/07/12 08:06:33;;;;;;;5.00;1.90;;;19.00;99.90;;;18.54;100.00;101378.34;3993801;29;20140;-77
2023/07/12 08:08:34;;;;;;;3.90;1.45;;;19.10;99.90;;;18.61;100.00;101371.19;4008685;29;20478;-77
2023/07/12 08:10:35;;;;;;;9.35;3.08;;;19.20;99.90;;;18.57;100.00;101371.78;3997756;29;20036;-77
2023/07/12 08:12:37;;;;;;;5.70;2.05;;;19.20;99.90;;;18.54;100.00;101365.00;3997686;29;20530;-77
2023/07/12 08:14:37;;;;;;;3.88;1.58;;;19.20;99.90;;;18.61;100.00;101376.53;3996671;29;20046;-78
2023/07/12 08:16:38;;;;;;;6.93;2.28;;;19.20;99.90;;;18.79;100.00;101379.56;4011433;29;20038;-77
2023/07/12 08:18:39;;;;;;;8.80;2.10;;;19.20;99.90;;;18.75;100.00;101374.81;3997738;29;20037;-77
2023/07/12 08:20:40;;;;;;;4.28;1.33;;;19.30;99.90;;;19.01;100.00;101375.00;3997651;29;20034;-77
2023/07/12 08:22:41;;;;;;;5.22;2.13;;;19.40;99.90;;;18.59;100.00;101381.25;3997222;29;20050;-77
2023/07/12 08:24:42;;;;;;;6.53;2.05;;;19.40;99.90;;;18.69;100.00;101380.94;4011587;29;20084;-77
2023/07/12 08:26:43;;;;;;;2.78;1.10;;;19.40;99.90;;;18.69;100.00;101381.78;3996472;29;20034;-77
2023/07/12 08:28:44;;;;;;;3.42;1.67;;;19.30;99.90;;;18.33;100.00;101385.50;3981541;29;20041;-77
2023/07/12 08:30:45;;;;;;;3.58;1.50;;;19.20;99.90;;;18.52;100.00;101383.03;3981401;29;20510;-77
2023/07/12 08:32:46;;;;;;;4.80;1.38;;;19.10;99.90;;;19.07;100.00;101389.44;3996297;29;20037;-77
2023/07/12 08:34:47;;;;;;;4.03;1.20;;;19.40;99.90;;;19.35;99.45;101371.53;3997523;29;20034;-77
2023/07/12 08:36:48;;;;;;;3.53;1.17;;;19.70;99.90;;;19.21;98.55;101380.47;3992093;29;20069;-77
2023/07/12 08:38:50;;;;;;;6.22;1.38;;;19.80;99.90;;;18.95;99.65;101388.31;4011466;29;20500;-77
2023/07/12 08:40:52;;;;;;;5.32;1.45;;;19.60;99.90;;;18.90;100.00;101396.94;3996118;29;20031;-77
2023/07/12 08:42:53;;;;;;;4.82;1.33;;;19.50;99.90;;;18.89;100.00;101392.59;3997364;29;20466;-77
2023/07/12 08:44:58;;;;;;;4.93;1.38;;;19.50;99.90;;;18.96;100.00;101380.13;3997406;29;20025;-77
2023/07/12 08:47:00;;;;;;;3.47;1.40;;;19.40;99.90;;;18.98;98.79;101375.41;3997249;29;20044;-77
2023/07/12 08:49:02;;;;;;;5.93;1.67;;;19.60;99.90;;;18.91;96.28;101376.34;3995689;29;20023;-77
2023/07/12 08:51:13;;;;;;;4.55;1.23;;;19.50;99.90;;;18.96;97.01;101390.00;3981154;29;20380;-77
2023/07/12 08:53:20;;;;;;;4.50;1.27;;;19.50;99.90;;;19.00;96.75;101375.19;3980825;29;20042;-77
2023/07/12 08:55:22;;;;;;;6.78;1.08;;;19.50;99.90;;;19.22;98.44;101364.25;3980884;29;20034;-77
2023/07/12 08:57:28;;;;;;;4.32;1.27;;;19.60;99.90;;;19.21;88.50;101367.09;3996168;29;20090;-77
2023/07/12 08:59:29;;;;;;;5.07;1.58;;;19.80;99.90;;;19.21;89.49;101369.78;3996196;29;20041;-77
2023/07/12 09:01:41;;;;;;;4.18;1.40;;;19.80;99.90;;;19.23;88.25;101367.75;3980867;29;20066;-77
2023/07/12 09:03:43;;;;;;;4.28;1.38;;;19.80;99.90;;;19.21;88.06;101359.06;4011167;29;20046;-77
2023/07/12 09:05:43;;;;;;;6.05;1.33;;;19.80;99.90;;;19.31;90.19;101368.41;3965955;30;20073;-77
2023/07/12 09:08:08;;;;;;;3.63;1.20;;;19.80;99.90;;;19.39;90.14;101366.56;3995803;29;20034;-77
2023/07/12 09:10:09;;;;;;;4.18;1.20;;;19.90;99.90;;;19.54;90.65;101364.63;3995820;29;20039;-77
2023/07/12 09:12:34;;;;;;;3.65;1.25;;;20.00;99.90;;;19.61;87.68;101354.78;3997176;29;20034;-77
2023/07/12 09:14:36;;;;;;;3.40;1.30;;;20.10;99.90;;;19.86;88.40;101361.25;3980950;29;20042;-77
2023/07/12 09:16:37;;;;;;;4.50;1.30;;;20.30;99.90;;;20.11;84.81;101358.84;3995724;29;20034;-77
2023/07/12 09:18:38;;;;;;;3.28;1.50;;;20.50;99.90;;;20.15;81.45;101357.41;4011027;29;20030;-77
2023/07/12 09:20:41;;;;;;;5.72;1.40;;;20.70;99.90;;;20.64;78.95;101357.88;3996986;29;20038;-77
2023/07/12 09:22:44;;;;;;;3.35;1.77;;;21.10;99.90;;;21.06;77.21;101353.06;4010564;29;20038;-77
2023/07/12 09:24:53;;;;;;;5.57;1.80;;;21.40;99.90;;;21.46;74.89;101351.97;3995942;29;20506;-77
2023/07/12 09:27:06;;;;;;;2.53;0.85;;;21.70;99.90;;;20.77;74.81;101349.00;3980421;29;20046;-77
2023/07/12 09:29:24;;;;;;;1.95;0.75;;;21.60;99.90;;;20.58;77.25;101347.19;3996692;29;20090;-78
2023/07/12 09:31:30;;;;;;;3.00;0.90;;;21.30;99.90;;;20.37;78.91;101346.31;3995746;29;20427;-80
2023/07/12 09:33:34;;;;;;;3.95;1.10;;;21.10;99.90;;;20.46;79.17;101338.91;3995617;29;20082;-81
2023/07/12 09:35:45;;;;;;;2.63;1.17;;;21.10;99.90;;;20.71;78.37;101347.97;3996575;29;20030;-80
2023/07/12 09:37:46;;;;;;;5.63;1.10;;;21.20;99.90;;;21.01;76.60;101347.53;3983687;29;20082;-80
2023/07/12 09:39:59;;;;;;;4.35;1.25;;;21.50;99.90;;;21.25;71.02;101344.19;3996819;29;20027;-80
2023/07/12 09:42:02;;;;;;;3.97;1.05;;;21.70;99.00;;;21.45;69.94;101344.94;3996411;29;20035;-80
2023/07/12 09:44:03;;;;;;;6.15;0.93;;;21.80;98.90;;;21.35;69.68;101341.91;3993827;29;20034;-77
2023/07/12 09:46:45;;;;;;;3.90;0.90;;;21.80;98.70;;;21.18;69.51;101343.38;3995642;29;20038;-77
2023/07/12 09:49:06;;;;;;;2.78;1.05;;;21.70;98.60;;;20.68;72.68;101358.28;3995739;29;20079;-79